Time;durP1;ratioP1;P1;durP2;ratioP2;P2;SDS_P1;SDS_P2;PMS_P1;PMS_P2;Temp;Humidity;BMP_temperature;BMP_pressure;BME280_temperature;BME280_humidity;BME280_pressure;Samples;Min_cycle;Max_cycle;Signal;HPM_P1;HPM_P2
2021/04/17 00:01:55;;;;;;;5.72;4.13;;;11.00;44.50;;;;;;5125720;27;20023;-68
2021/04/17 00:04:23;;;;;;;9.25;6.07;;;10.90;44.50;;;;;;5133189;27;20031;-68
2021/04/17 00:06:50;;;;;;;10.40;5.57;;;10.90;45.10;;;;;;5131742;27;20035;-68
2021/04/17 00:09:25;;;;;;;9.48;4.68;;;10.90;45.20;;;;;;5148653;27;20031;-68
2021/04/17 00:11:52;;;;;;;6.40;4.72;;;10.90;45.20;;;;;;5117337;27;20023;-68
2021/04/17 00:14:32;;;;;;;6.28;4.68;;;10.90;45.10;;;;;;5130960;27;20031;-68
2021/04/17 00:16:57;;;;;;;6.43;4.65;;;10.90;45.20;;;;;;5133075;27;20015;-68
2021/04/17 00:19:23;;;;;;;6.10;4.35;;;10.90;45.10;;;;;;5124995;27;20496;-67
2021/04/17 00:21:49;;;;;;;6.63;4.90;;;10.90;45.10;;;;;;5110099;28;20084;-68
2021/04/17 00:24:15;;;;;;;5.43;4.15;;;10.90;45.40;;;;;;5112113;28;20024;-68
2021/04/17 00:26:41;;;;;;;5.00;4.10;;;10.90;45.40;;;;;;5112677;28;20107;-68
2021/04/17 00:29:07;;;;;;;8.00;4.80;;;10.90;45.40;;;;;;5139466;27;20035;-68
2021/04/17 00:31:34;;;;;;;6.22;4.40;;;10.90;45.60;;;;;;5116650;27;20475;-67
2021/04/17 00:34:01;;;;;;;5.20;3.92;;;10.90;45.60;;;;;;5121714;28;20083;-68
2021/04/17 00:36:27;;;;;;;9.93;4.50;;;10.90;45.80;;;;;;5122213;27;20023;-68
2021/04/17 00:38:54;;;;;;;10.25;7.25;;;10.90;45.80;;;;;;5112644;28;20412;-67
2021/04/17 00:41:20;;;;;;;10.45;7.50;;;10.80;45.80;;;;;;5112356;28;20161;-68
2021/04/17 00:43:46;;;;;;;14.13;9.52;;;10.80;45.90;;;;;;5112441;28;20510;-68
2021/04/17 00:46:12;;;;;;;10.85;7.18;;;10.90;45.70;;;;;;5143214;27;20037;-68
2021/04/17 00:48:42;;;;;;;14.80;6.95;;;10.90;45.70;;;;;;5153793;27;20049;-68
2021/04/17 00:51:10;;;;;;;10.13;6.72;;;10.90;45.70;;;;;;5124620;27;20047;-68
2021/04/17 00:53:36;;;;;;;8.25;6.20;;;10.90;45.40;;;;;;5111081;28;20380;-68
2021/04/17 00:56:06;;;;;;;7.22;5.40;;;10.90;45.20;;;;;;5126434;28;20030;-68
2021/04/17 00:58:32;;;;;;;8.32;6.32;;;10.90;45.10;;;;;;5132763;27;20068;-68
2021/04/17 01:00:58;;;;;;;8.85;6.00;;;10.90;45.10;;;;;;5120444;27;20055;-68
2021/04/17 01:03:41;;;;;;;11.27;8.00;;;10.90;44.90;;;;;;5128778;28;20061;-68
2021/04/17 01:06:21;;;;;;;10.18;7.63;;;11.00;45.50;;;;;;5132809;27;20015;-68
2021/04/17 01:08:59;;;;;;;12.40;6.35;;;11.00;45.30;;;;;;5132985;27;20472;-68
2021/04/17 01:11:38;;;;;;;9.20;5.88;;;11.00;45.20;;;;;;5143899;27;20076;-68
2021/04/17 01:14:06;;;;;;;8.20;6.20;;;11.00;45.00;;;;;;5141758;27;20039;-67
2021/04/17 01:16:32;;;;;;;7.35;5.53;;;11.00;45.00;;;;;;5114899;28;20030;-67
2021/04/17 01:19:00;;;;;;;7.00;5.55;;;11.00;44.80;;;;;;5116359;27;20039;-68
2021/04/17 01:21:27;;;;;;;12.02;7.53;;;11.00;44.80;;;;;;5116386;27;20059;-68
2021/04/17 01:24:03;;;;;;;7.55;5.60;;;11.00;45.00;;;;;;5116126;28;20032;-68
2021/04/17 01:26:30;;;;;;;5.55;4.53;;;11.00;45.30;;;;;;5116044;28;20366;-68
2021/04/17 01:28:57;;;;;;;7.88;4.90;;;11.00;45.40;;;;;;5115913;28;20019;-68
2021/04/17 01:31:31;;;;;;;6.70;4.80;;;11.00;45.60;;;;;;5130472;27;20023;-68
2021/04/17 01:34:00;;;;;;;7.13;5.30;;;11.00;45.70;;;;;;5136062;27;20024;-68
2021/04/17 01:36:28;;;;;;;10.50;5.28;;;11.00;46.00;;;;;;5146817;27;20048;-68
2021/04/17 01:39:05;;;;;;;6.43;5.07;;;11.00;46.10;;;;;;5115808;28;20011;-68
2021/04/17 01:41:53;;;;;;;7.05;5.07;;;11.00;46.20;;;;;;5115794;27;20030;-68
2021/04/17 01:44:22;;;;;;;6.65;5.00;;;10.90;46.20;;;;;;5115443;27;20035;-68
2021/04/17 01:47:01;;;;;;;7.68;5.38;;;10.90;46.20;;;;;;5115519;28;20229;-68
2021/04/17 01:49:28;;;;;;;7.75;5.63;;;10.90;46.40;;;;;;5115203;28;20058;-69
2021/04/17 01:51:55;;;;;;;7.32;5.40;;;10.90;46.50;;;;;;5123036;27;20035;-68
2021/04/17 01:54:30;;;;;;;7.75;5.28;;;10.80;46.50;;;;;;5135783;27;20024;-70
2021/04/17 01:57:00;;;;;;;;;;;10.80;46.60;;;;;;5136067;27;20103;-68
2021/04/17 01:59:29;;;;;;;9.05;5.80;;;10.80;45.90;;;;;;5135867;27;19909;-67
2021/04/17 02:01:55;;;;;;;12.63;7.20;;;10.80;46.40;;;;;;5118378;27;20106;-68
2021/04/17 02:04:21;;;;;;;9.77;6.95;;;10.80;46.80;;;;;;5156252;27;20023;-67
2021/04/17 02:06:47;;;;;;;10.77;6.68;;;10.70;47.30;;;;;;5156392;27;20495;-67
2021/04/17 02:09:13;;;;;;;8.27;5.65;;;10.70;47.30;;;;;;5122524;27;20027;-67
2021/04/17 02:11:38;;;;;;;10.55;6.60;;;10.70;47.20;;;;;;5114817;27;20036;-67
2021/04/17 02:14:05;;;;;;;6.82;5.25;;;10.70;47.60;;;;;;5114893;28;20027;-67
2021/04/17 02:16:57;;;;;;;7.72;5.10;;;10.70;47.30;;;;;;5124733;27;20025;-67
2021/04/17 02:19:39;;;;;;;7.63;5.55;;;10.70;47.30;;;;;;5145895;27;20031;-68
2021/04/17 02:22:06;;;;;;;6.75;5.20;;;10.70;47.40;;;;;;5115457;27;20024;-68
2021/04/17 02:24:33;;;;;;;6.63;4.93;;;10.70;47.30;;;;;;5113834;28;20102;-68
2021/04/17 02:26:59;;;;;;;9.30;4.90;;;10.70;47.30;;;;;;5113341;28;20027;-68
2021/04/17 02:29:25;;;;;;;6.28;5.40;;;10.70;47.20;;;;;;5124663;27;20038;-68
2021/04/17 02:31:51;;;;;;;8.85;5.25;;;10.70;47.20;;;;;;5120354;27;20054;-67
2021/04/17 02:34:19;;;;;;;6.97;5.15;;;10.70;47.20;;;;;;5135048;27;20102;-68
2021/04/17 02:36:45;;;;;;;7.15;5.68;;;10.70;47.00;;;;;;5133805;27;20035;-68
2021/04/17 02:39:11;;;;;;;9.65;6.55;;;10.70;47.10;;;;;;5135115;27;20383;-68
2021/04/17 02:41:37;;;;;;;10.60;7.07;;;10.70;47.20;;;;;;5120074;27;20032;-68
2021/04/17 02:44:03;;;;;;;11.77;7.80;;;10.70;47.20;;;;;;5155076;27;20057;-68
2021/04/17 02:46:30;;;;;;;11.43;7.85;;;10.70;47.20;;;;;;5156113;27;20486;-68
2021/04/17 02:48:55;;;;;;;10.50;6.95;;;10.70;47.20;;;;;;5145016;27;20020;-68
2021/04/17 02:51:21;;;;;;;9.23;6.22;;;10.80;47.20;;;;;;5114955;28;20385;-68
2021/04/17 02:53:48;;;;;;;8.63;5.75;;;10.80;47.30;;;;;;5115141;28;20134;-67
2021/04/17 02:56:15;;;;;;;8.30;5.70;;;10.80;47.30;;;;;;5139052;27;20027;-68
2021/04/17 02:58:41;;;;;;;7.50;5.57;;;10.80;47.10;;;;;;5156244;27;20014;-68
2021/04/17 03:01:07;;;;;;;9.15;6.40;;;10.80;47.10;;;;;;5136981;27;20076;-68
2021/04/17 03:03:33;;;;;;;8.93;6.22;;;10.80;47.10;;;;;;5135381;27;20023;-68
2021/04/17 03:05:59;;;;;;;8.45;5.85;;;10.80;47.20;;;;;;5135364;27;20106;-68
2021/04/17 03:08:25;;;;;;;8.77;5.85;;;10.80;47.20;;;;;;5131134;27;20023;-67
2021/04/17 03:10:51;;;;;;;8.88;6.45;;;10.80;47.10;;;;;;5135155;27;20490;-68
2021/04/17 03:13:18;;;;;;;8.73;6.30;;;10.80;47.20;;;;;;5135198;27;20031;-67
2021/04/17 03:15:44;;;;;;;8.05;6.03;;;10.80;47.10;;;;;;5135173;27;20019;-68
2021/04/17 03:18:11;;;;;;;9.82;6.45;;;10.80;47.10;;;;;;5132040;27;20396;-67
2021/04/17 03:20:37;;;;;;;9.38;7.22;;;10.80;47.10;;;;;;5114670;28;20023;-68
2021/04/17 03:23:04;;;;;;;8.13;6.70;;;10.80;47.10;;;;;;5151146;27;20484;-67
2021/04/17 03:25:31;;;;;;;7.57;6.03;;;10.80;47.00;;;;;;5155774;27;20071;-67
2021/04/17 03:27:57;;;;;;;11.15;7.35;;;10.80;47.00;;;;;;5123821;27;20084;-67
2021/04/17 03:30:28;;;;;;;9.82;7.18;;;10.80;47.00;;;;;;5123233;27;20041;-68
2021/04/17 03:32:55;;;;;;;8.77;6.93;;;10.80;46.90;;;;;;5134915;27;20027;-67
2021/04/17 03:35:21;;;;;;;9.73;7.00;;;10.90;47.00;;;;;;5123470;27;20520;-68
2021/04/17 03:37:47;;;;;;;8.73;6.65;;;10.80;47.00;;;;;;5155313;27;20027;-68
2021/04/17 03:40:14;;;;;;;12.02;6.68;;;10.80;47.00;;;;;;5155528;27;20015;-67
2021/04/17 03:42:40;;;;;;;9.90;6.60;;;10.80;47.10;;;;;;5155460;27;20030;-67
2021/04/17 03:45:06;;;;;;;13.63;7.07;;;10.80;47.30;;;;;;5141293;27;20027;-67
2021/04/17 03:47:34;;;;;;;8.68;6.45;;;10.80;47.30;;;;;;5132577;27;20019;-68
2021/04/17 03:50:00;;;;;;;9.30;6.80;;;10.80;47.20;;;;;;5134283;27;20547;-68
2021/04/17 03:52:26;;;;;;;9.73;7.07;;;10.90;47.20;;;;;;5134495;27;20027;-68
2021/04/17 03:54:52;;;;;;;9.63;6.40;;;10.80;47.10;;;;;;5134397;27;20559;-67
2021/04/17 03:57:18;;;;;;;9.07;7.03;;;10.80;47.10;;;;;;5134414;27;20357;-67
2021/04/17 03:59:45;;;;;;;11.00;7.57;;;10.80;47.20;;;;;;5134287;27;20019;-68
2021/04/17 04:02:12;;;;;;;11.13;7.65;;;10.80;47.30;;;;;;5149812;27;20026;-67
2021/04/17 04:04:38;;;;;;;12.25;7.75;;;10.90;47.30;;;;;;5148920;27;20028;-67
2021/04/17 04:07:04;;;;;;;8.88;6.75;;;10.80;47.30;;;;;;5113806;28;20031;-68
2021/04/17 04:09:30;;;;;;;8.88;6.30;;;10.80;47.30;;;;;;5148426;27;20027;-68
2021/04/17 04:11:57;;;;;;;10.80;7.63;;;10.80;47.30;;;;;;5155022;27;20022;-68
2021/04/17 04:14:24;;;;;;;9.45;7.22;;;10.80;47.40;;;;;;5137214;27;20012;-68
2021/04/17 04:16:50;;;;;;;9.85;7.13;;;10.80;47.40;;;;;;5132598;27;20015;-67
2021/04/17 04:19:16;;;;;;;8.30;6.70;;;10.80;47.40;;;;;;5131989;27;20018;-68
2021/04/17 04:21:42;;;;;;;10.98;8.13;;;10.80;47.40;;;;;;5113389;28;20027;-68
2021/04/17 04:24:08;;;;;;;9.32;6.93;;;10.80;47.70;;;;;;5112751;28;20096;-67
2021/04/17 04:26:35;;;;;;;9.57;7.25;;;10.80;47.60;;;;;;5126935;27;20420;-68
2021/04/17 04:29:01;;;;;;;8.15;6.03;;;10.80;47.60;;;;;;5112999;28;20400;-67
2021/04/17 04:31:26;;;;;;;9.95;7.43;;;10.80;47.60;;;;;;5113469;28;20019;-67
2021/04/17 04:33:52;;;;;;;8.10;6.25;;;10.80;47.60;;;;;;5113327;28;20071;-67
2021/04/17 04:36:18;;;;;;;9.27;7.28;;;10.80;47.50;;;;;;5113161;28;20027;-68
2021/04/17 04:38:44;;;;;;;8.98;6.95;;;10.80;47.50;;;;;;5112041;28;20015;-67
2021/04/17 04:41:10;;;;;;;9.80;7.18;;;10.80;47.60;;;;;;5113427;28;20094;-67
2021/04/17 04:43:36;;;;;;;8.52;6.68;;;10.80;47.50;;;;;;5113356;28;20060;-68
2021/04/17 04:46:02;;;;;;;10.38;7.55;;;10.90;47.60;;;;;;5116271;28;20031;-67
2021/04/17 04:48:27;;;;;;;10.40;7.40;;;10.90;47.40;;;;;;5143841;27;20034;-68
2021/04/17 04:50:53;;;;;;;10.55;7.22;;;10.90;47.40;;;;;;5158595;27;20043;-67
2021/04/17 04:53:20;;;;;;;11.15;7.90;;;10.90;47.50;;;;;;5125997;27;20031;-67
2021/04/17 04:55:45;;;;;;;11.23;8.05;;;10.90;47.60;;;;;;5117514;28;20019;-67
2021/04/17 04:58:11;;;;;;;13.93;7.63;;;10.90;47.70;;;;;;5133248;27;20020;-67
2021/04/17 05:00:37;;;;;;;13.70;8.23;;;10.90;47.80;;;;;;5124755;27;20019;-67
2021/04/17 05:03:03;;;;;;;13.10;9.07;;;10.90;48.00;;;;;;5137868;27;20495;-67
2021/04/17 05:05:29;;;;;;;10.32;7.70;;;10.90;48.00;;;;;;5137986;27;20477;-67
2021/04/17 05:07:54;;;;;;;12.85;7.57;;;10.90;48.00;;;;;;5137389;27;20122;-67
2021/04/17 05:10:20;;;;;;;10.75;7.95;;;10.90;48.10;;;;;;5137732;27;20120;-68
2021/04/17 05:12:46;;;;;;;13.57;7.75;;;10.90;48.20;;;;;;5137498;27;20055;-68
2021/04/17 05:15:12;;;;;;;9.77;7.00;;;10.90;48.10;;;;;;5136075;27;20024;-67
2021/04/17 05:17:38;;;;;;;10.05;7.78;;;11.00;48.00;;;;;;5135925;27;20103;-67
2021/04/17 05:20:05;;;;;;;10.43;7.63;;;11.00;47.90;;;;;;5137514;27;20023;-67
2021/04/17 05:22:31;;;;;;;12.90;7.72;;;11.00;47.90;;;;;;5137497;27;20095;-68
2021/04/17 05:24:57;;;;;;;10.25;7.80;;;11.00;48.00;;;;;;5125299;27;20116;-67
2021/04/17 05:27:23;;;;;;;10.13;7.47;;;11.00;47.90;;;;;;5116816;28;20027;-67
2021/04/17 05:29:48;;;;;;;11.70;8.10;;;11.00;47.90;;;;;;5115545;28;20037;-67
2021/04/17 05:32:14;;;;;;;22.23;8.38;;;11.10;47.90;;;;;;5134396;27;20105;-67
2021/04/17 05:34:40;;;;;;;13.13;9.25;;;11.10;48.00;;;;;;5157651;27;20071;-67
2021/04/17 05:37:06;;;;;;;10.32;7.70;;;11.10;47.90;;;;;;5158096;27;20060;-67
2021/04/17 05:39:32;;;;;;;13.10;9.75;;;11.10;47.90;;;;;;5156891;27;20421;-67
2021/04/17 05:41:58;;;;;;;14.02;8.65;;;11.10;47.90;;;;;;5157935;27;20023;-68
2021/04/17 05:44:23;;;;;;;11.57;8.75;;;11.10;47.90;;;;;;5152022;27;20107;-67
2021/04/17 05:46:49;;;;;;;14.23;10.68;;;11.10;47.80;;;;;;5134706;27;20027;-67
2021/04/17 05:49:15;;;;;;;12.98;8.80;;;11.10;47.90;;;;;;5135692;27;20031;-68
2021/04/17 05:51:42;;;;;;;16.48;9.73;;;11.10;47.90;;;;;;5136621;27;20560;-68
2021/04/17 05:54:10;;;;;;;12.02;8.40;;;11.20;48.10;;;;;;5136753;27;20031;-67
2021/04/17 05:56:36;;;;;;;14.05;8.43;;;11.20;48.20;;;;;;5132272;27;20015;-68
2021/04/17 05:59:03;;;;;;;14.38;8.90;;;11.20;48.20;;;;;;5139757;27;20033;-67
2021/04/17 06:01:29;;;;;;;13.48;9.38;;;11.20;48.20;;;;;;5157336;27;20054;-67
2021/04/17 06:03:54;;;;;;;21.40;9.85;;;11.20;48.20;;;;;;5142592;27;20459;-68
2021/04/17 06:06:20;;;;;;;14.63;9.82;;;11.30;48.20;;;;;;5115945;28;20149;-67
2021/04/17 06:08:46;;;;;;;15.25;9.90;;;11.30;48.20;;;;;;5120841;27;20027;-67
2021/04/17 06:11:12;;;;;;;17.30;10.80;;;11.30;48.80;;;;;;5136588;27;20023;-68
2021/04/17 06:13:38;;;;;;;15.73;9.63;;;11.30;48.20;;;;;;5136471;27;20035;-68
2021/04/17 06:16:05;;;;;;;13.95;10.07;;;11.40;48.20;;;;;;5136214;27;20491;-67
2021/04/17 06:18:35;;;;;;;14.60;9.80;;;11.40;48.20;;;;;;5116006;27;20023;-68
2021/04/17 06:21:02;;;;;;;17.55;10.63;;;11.40;48.20;;;;;;5119606;27;20015;-68
2021/04/17 06:23:28;;;;;;;15.57;9.80;;;11.40;48.20;;;;;;5138061;27;20402;-67
2021/04/17 06:25:54;;;;;;;13.07;9.25;;;11.40;48.30;;;;;;5156931;27;20031;-67
2021/04/17 06:28:20;;;;;;;17.73;9.50;;;11.40;48.20;;;;;;5119317;27;20554;-67
2021/04/17 06:30:46;;;;;;;14.85;9.82;;;11.40;48.30;;;;;;5115496;28;20099;-67
2021/04/17 06:33:12;;;;;;;13.15;9.68;;;11.40;48.20;;;;;;5115397;28;20498;-67
2021/04/17 06:35:39;;;;;;;12.57;9.23;;;11.40;48.20;;;;;;5122060;27;20507;-68
2021/04/17 06:38:08;;;;;;;12.05;9.48;;;11.50;48.20;;;;;;5127366;27;20019;-68
2021/04/17 06:40:34;;;;;;;12.55;8.38;;;11.50;48.10;;;;;;5144537;27;20019;-68
2021/04/17 06:43:03;;;;;;;10.88;8.52;;;11.50;48.10;;;;;;5147084;27;20381;-67
2021/04/17 06:45:36;;;;;;;12.50;9.13;;;11.50;48.00;;;;;;5114342;28;20026;-68
2021/04/17 06:48:09;;;;;;;10.50;8.40;;;11.60;48.00;;;;;;5118358;27;20507;-67
2021/04/17 06:50:36;;;;;;;12.45;8.93;;;11.60;48.00;;;;;;5131905;27;20625;-67
2021/04/17 06:53:05;;;;;;;11.93;8.07;;;11.60;48.00;;;;;;5136499;27;20066;-67
2021/04/17 06:55:31;;;;;;;11.50;8.63;;;11.60;47.90;;;;;;5135694;27;20393;-68
2021/04/17 06:57:59;;;;;;;11.57;9.05;;;11.70;48.00;;;;;;5121636;27;20020;-67
2021/04/17 07:00:25;;;;;;;12.23;8.48;;;11.70;47.90;;;;;;5115006;28;20106;-68
2021/04/17 07:02:51;;;;;;;11.27;8.20;;;11.70;47.90;;;;;;5116275;27;20027;-67
2021/04/17 07:05:17;;;;;;;12.18;9.02;;;11.80;48.00;;;;;;5114822;28;20042;-67
2021/04/17 07:07:43;;;;;;;13.32;9.25;;;11.70;47.90;;;;;;5114683;28;20035;-68
2021/04/17 07:10:09;;;;;;;11.82;8.55;;;11.80;47.90;;;;;;5130194;27;20027;-68
2021/04/17 07:12:35;;;;;;;10.27;8.20;;;11.80;47.80;;;;;;5135564;27;20023;-68
2021/04/17 07:15:06;;;;;;;11.80;7.65;;;11.80;47.70;;;;;;5135169;27;20521;-67
2021/04/17 07:17:34;;;;;;;9.70;7.55;;;11.90;47.70;;;;;;5125176;27;20023;-68
2021/04/17 07:20:08;;;;;;;11.07;8.73;;;11.90;47.60;;;;;;5150616;27;20026;-68
2021/04/17 07:22:39;;;;;;;13.55;8.40;;;11.90;47.50;;;;;;5155661;27;20022;-68
2021/04/17 07:25:05;;;;;;;13.55;8.80;;;11.90;47.40;;;;;;5131531;27;20027;-68
2021/04/17 07:27:46;;;;;;;13.13;9.23;;;11.90;47.40;;;;;;5125197;27;20469;-68
2021/04/17 07:30:15;;;;;;;11.23;8.15;;;12.00;47.40;;;;;;5113094;28;20050;-67
2021/04/17 07:33:01;;;;;;;12.18;8.38;;;12.00;47.30;;;;;;5114227;28;20028;-68
2021/04/17 07:35:36;;;;;;;9.98;8.13;;;12.00;47.40;;;;;;5105636;28;20035;-68
2021/04/17 07:38:10;;;;;;;14.05;8.88;;;12.00;47.20;;;;;;5114524;27;20477;-68
2021/04/17 07:40:36;;;;;;;;;;;12.00;47.10;;;;;;5114608;28;20341;-68
2021/04/17 07:43:02;;;;;;;10.73;7.97;;;12.10;47.10;;;;;;5119734;27;19907;-67
2021/04/17 07:45:41;;;;;;;10.45;8.20;;;12.10;47.00;;;;;;5134288;27;20075;-67
2021/04/17 07:48:28;;;;;;;10.23;7.57;;;12.10;47.00;;;;;;5128130;27;20468;-68
2021/04/17 07:50:56;;;;;;;11.05;7.93;;;12.20;47.10;;;;;;5134441;27;20059;-68
2021/04/17 07:53:32;;;;;;;11.05;7.85;;;12.20;47.10;;;;;;5132943;27;20031;-68
2021/04/17 07:56:24;;;;;;;10.48;7.43;;;12.30;47.10;;;;;;5128406;27;20516;-69
2021/04/17 07:58:56;;;;;;;13.48;9.95;;;12.40;47.10;;;;;;5111907;28;20428;-68
2021/04/17 08:01:23;;;;;;;12.82;9.32;;;12.40;46.60;;;;;;5111899;28;20376;-68
2021/04/17 08:03:51;;;;;;;13.75;10.02;;;12.50;46.40;;;;;;5120907;27;20038;-68
2021/04/17 08:06:17;;;;;;;14.55;9.30;;;12.50;46.10;;;;;;5113602;27;20028;-69
2021/04/17 08:08:43;;;;;;;11.30;8.73;;;12.50;46.00;;;;;;5133061;27;20023;-69
2021/04/17 08:11:10;;;;;;;12.77;9.25;;;12.60;45.90;;;;;;5132184;27;20049;-68
2021/04/17 08:13:41;;;;;;;12.85;9.77;;;12.60;45.70;;;;;;5126505;27;20476;-68
2021/04/17 08:16:08;;;;;;;12.05;8.57;;;12.60;45.50;;;;;;5132908;27;20034;-68
2021/04/17 08:18:38;;;;;;;18.33;10.38;;;12.60;45.30;;;;;;5126359;27;20030;-68
2021/04/17 08:21:09;;;;;;;13.40;9.75;;;12.60;45.30;;;;;;5135332;27;20031;-68
2021/04/17 08:23:36;;;;;;;12.18;8.93;;;12.70;45.40;;;;;;5116645;27;20026;-68
2021/04/17 08:26:03;;;;;;;18.10;8.85;;;12.70;45.40;;;;;;5129108;27;20019;-68
2021/04/17 08:28:30;;;;;;;14.45;8.73;;;12.80;45.40;;;;;;5123741;27;20020;-68
2021/04/17 08:31:34;;;;;;;12.38;8.43;;;12.80;45.40;;;;;;5129651;27;20075;-69
2021/04/17 08:34:16;;;;;;;11.52;8.88;;;12.80;45.40;;;;;;5132868;27;20049;-68
2021/04/17 08:36:47;;;;;;;12.15;9.07;;;12.90;45.20;;;;;;5132891;27;20064;-68
2021/04/17 08:39:34;;;;;;;19.55;10.15;;;13.00;44.80;;;;;;5128936;27;20033;-68
2021/04/17 08:42:05;;;;;;;12.27;9.23;;;13.00;44.60;;;;;;5123419;27;20027;-68
2021/04/17 08:44:36;;;;;;;12.95;8.77;;;13.00;44.50;;;;;;5132766;28;20027;-68
2021/04/17 08:47:05;;;;;;;12.35;9.13;;;13.10;44.60;;;;;;5133791;27;20110;-68
2021/04/17 08:49:32;;;;;;;13.70;8.50;;;13.10;44.50;;;;;;5131635;28;20031;-68
2021/04/17 08:52:10;;;;;;;13.55;9.43;;;13.10;44.90;;;;;;5131535;27;20085;-68
2021/04/17 08:54:39;;;;;;;11.32;8.25;;;13.20;44.20;;;;;;5131368;28;20482;-68
2021/04/17 08:57:12;;;;;;;16.42;9.48;;;13.20;44.10;;;;;;5124431;27;20023;-69
2021/04/17 08:59:40;;;;;;;11.23;8.18;;;13.30;43.80;;;;;;5123068;28;20080;-68
2021/04/17 09:02:17;;;;;;;12.30;9.32;;;13.40;44.00;;;;;;5132085;28;20027;-69
2021/04/17 09:04:59;;;;;;;13.65;8.52;;;13.40;43.80;;;;;;5131678;28;20121;-69
2021/04/17 09:07:26;;;;;;;14.00;8.95;;;13.50;43.80;;;;;;5126414;27;20027;-68
2021/04/17 09:09:53;;;;;;;10.57;7.82;;;13.60;43.60;;;;;;5112116;28;20032;-68
2021/04/17 09:12:21;;;;;;;13.10;9.10;;;13.60;43.60;;;;;;5115392;28;20038;-68
2021/04/17 09:14:51;;;;;;;11.85;8.60;;;13.70;43.40;;;;;;5124069;28;20024;-68
2021/04/17 09:17:32;;;;;;;12.35;9.23;;;13.70;43.50;;;;;;5135953;27;20031;-68
2021/04/17 09:19:59;;;;;;;17.10;9.23;;;13.70;43.10;;;;;;5128300;27;20076;-68
2021/04/17 09:22:31;;;;;;;13.77;9.73;;;13.70;43.00;;;;;;5113879;27;20027;-68
2021/04/17 09:24:58;;;;;;;10.73;7.57;;;13.60;42.80;;;;;;5112098;28;20052;-68
2021/04/17 09:27:28;;;;;;;14.38;9.40;;;13.60;43.10;;;;;;5129007;28;20034;-68
2021/04/17 09:29:58;;;;;;;12.02;8.60;;;13.60;42.90;;;;;;5118951;27;20035;-68
2021/04/17 09:32:35;;;;;;;13.98;9.00;;;13.60;42.90;;;;;;5126997;27;20031;-68
2021/04/17 09:35:20;;;;;;;14.02;8.38;;;13.60;42.90;;;;;;5123923;27;20027;-68
2021/04/17 09:37:58;;;;;;;13.20;9.07;;;13.50;43.10;;;;;;5121651;27;20032;-68
2021/04/17 09:40:36;;;;;;;10.18;7.68;;;13.60;43.10;;;;;;5115648;28;20377;-68
2021/04/17 09:43:02;;;;;;;14.45;8.98;;;13.60;43.20;;;;;;5129437;27;20083;-68
2021/04/17 09:45:39;;;;;;;11.68;8.00;;;13.60;43.30;;;;;;5134573;27;20042;-68
2021/04/17 09:48:09;;;;;;;12.32;8.63;;;13.60;43.40;;;;;;5137081;27;20097;-68
2021/04/17 09:50:36;;;;;;;9.95;8.07;;;13.60;43.40;;;;;;5141507;27;20054;-68
2021/04/17 09:53:29;;;;;;;13.48;8.55;;;13.70;43.50;;;;;;5135276;27;20334;-68
2021/04/17 09:56:02;;;;;;;12.85;8.75;;;13.70;43.40;;;;;;5131670;27;20046;-68
2021/04/17 09:58:43;;;;;;;12.32;8.27;;;13.70;43.20;;;;;;5136002;27;20064;-68
2021/04/17 10:01:14;;;;;;;12.00;7.90;;;13.80;43.30;;;;;;5135880;27;20077;-68
2021/04/17 10:03:41;;;;;;;9.95;7.90;;;13.90;43.20;;;;;;5135688;27;20102;-68
2021/04/17 10:06:25;;;;;;;14.88;8.38;;;13.90;42.80;;;;;;5139851;27;20448;-68
2021/04/17 10:08:51;;;;;;;11.55;7.97;;;14.00;42.50;;;;;;5126248;27;20507;-68
2021/04/17 10:11:21;;;;;;;13.40;9.80;;;14.10;42.30;;;;;;5135748;27;20435;-68
2021/04/17 10:13:47;;;;;;;12.15;8.38;;;14.10;42.00;;;;;;5135460;27;20026;-68
2021/04/17 10:16:15;;;;;;;11.70;7.85;;;14.10;42.10;;;;;;5118403;27;20027;-68
2021/04/17 10:18:44;;;;;;;14.75;8.45;;;14.20;42.00;;;;;;5115095;28;20049;-68
2021/04/17 10:21:11;;;;;;;14.02;9.27;;;14.30;41.80;;;;;;5133843;27;20030;-68
2021/04/17 10:23:36;;;;;;;10.98;8.18;;;14.30;41.60;;;;;;5135400;27;20015;-68
2021/04/17 10:26:11;;;;;;;12.90;9.10;;;14.40;41.60;;;;;;5119539;27;20079;-68
2021/04/17 10:28:38;;;;;;;15.07;9.10;;;14.40;41.30;;;;;;5122711;27;20110;-68
2021/04/17 10:31:18;;;;;;;11.75;8.10;;;14.40;40.70;;;;;;5114777;28;20020;-68
2021/04/17 10:33:46;;;;;;;11.05;8.18;;;14.40;41.00;;;;;;5114480;28;20119;-68
2021/04/17 10:36:23;;;;;;;12.35;8.38;;;14.50;41.00;;;;;;5141045;27;20091;-68
2021/04/17 10:38:49;;;;;;;11.05;8.32;;;14.50;41.00;;;;;;5114510;27;20528;-68
2021/04/17 10:41:30;;;;;;;11.75;9.00;;;14.60;41.10;;;;;;5114485;28;20062;-68
2021/04/17 10:44:13;;;;;;;12.52;7.97;;;14.60;40.30;;;;;;5114824;27;20055;-68
2021/04/17 10:46:52;;;;;;;11.82;8.95;;;14.70;40.60;;;;;;5117488;27;20106;-68
2021/04/17 10:49:31;;;;;;;10.93;7.63;;;14.70;40.10;;;;;;5136224;27;20027;-68
2021/04/17 10:51:59;;;;;;;10.95;8.82;;;14.80;40.60;;;;;;5120075;27;20583;-68
2021/04/17 10:54:25;;;;;;;8.57;7.13;;;14.90;40.40;;;;;;5124453;27;20023;-68
2021/04/17 10:56:57;;;;;;;12.57;9.32;;;15.00;40.50;;;;;;5125291;27;20047;-69
2021/04/17 10:59:23;;;;;;;12.05;8.70;;;15.00;40.10;;;;;;5133348;27;20088;-68
2021/04/17 11:01:49;;;;;;;12.07;8.32;;;15.10;39.80;;;;;;5133123;27;20568;-68
2021/04/17 11:04:15;;;;;;;10.00;7.82;;;15.20;39.80;;;;;;5133685;27;20027;-69
2021/04/17 11:06:46;;;;;;;12.40;8.80;;;15.20;39.80;;;;;;5119111;27;20491;-68
2021/04/17 11:09:17;;;;;;;11.43;8.75;;;15.30;39.90;;;;;;5112219;28;20134;-69
2021/04/17 11:12:00;;;;;;;14.98;8.63;;;15.40;39.60;;;;;;5131065;27;20034;-68
2021/04/17 11:14:28;;;;;;;11.43;8.25;;;15.50;39.50;;;;;;5121595;27;20034;-68
2021/04/17 11:16:54;;;;;;;11.88;9.27;;;15.60;39.20;;;;;;5135969;27;20544;-68
2021/04/17 11:19:27;;;;;;;11.20;9.23;;;15.60;38.80;;;;;;5134031;27;20026;-68
2021/04/17 11:22:10;;;;;;;11.30;8.55;;;15.70;38.80;;;;;;5133844;27;20023;-68
2021/04/17 11:24:37;;;;;;;11.95;8.65;;;15.70;38.70;;;;;;5133669;27;20430;-68
2021/04/17 11:27:03;;;;;;;15.18;9.25;;;15.70;38.50;;;;;;5119694;27;20061;-68
2021/04/17 11:29:29;;;;;;;12.05;9.10;;;15.80;38.10;;;;;;5128631;27;20110;-68
2021/04/17 11:31:55;;;;;;;13.25;9.05;;;15.70;38.00;;;;;;5112198;28;20111;-68
2021/04/17 11:34:21;;;;;;;11.57;8.60;;;15.70;38.10;;;;;;5118712;27;20555;-68
2021/04/17 11:36:47;;;;;;;12.45;9.45;;;15.70;38.00;;;;;;5146906;27;20023;-68
2021/04/17 11:39:15;;;;;;;11.95;9.35;;;15.70;38.00;;;;;;5153984;27;20026;-68
2021/04/17 11:41:41;;;;;;;11.00;8.68;;;15.70;38.20;;;;;;5151339;27;20115;-68
2021/04/17 11:44:07;;;;;;;10.60;7.75;;;15.80;38.20;;;;;;5113073;28;20110;-68
2021/04/17 11:46:35;;;;;;;9.95;7.72;;;15.90;38.30;;;;;;5124030;27;20030;-68
2021/04/17 11:49:02;;;;;;;11.05;8.40;;;15.90;38.00;;;;;;5133437;27;20360;-68
2021/04/17 11:51:28;;;;;;;9.68;7.88;;;16.00;37.90;;;;;;5134194;27;20156;-68
2021/04/17 11:53:54;;;;;;;9.77;7.55;;;16.10;37.90;;;;;;5144633;27;20464;-68
2021/04/17 11:56:20;;;;;;;10.10;7.97;;;16.20;37.50;;;;;;5119609;27;20024;-68
2021/04/17 11:58:46;;;;;;;11.65;8.23;;;16.30;37.30;;;;;;5123375;27;20011;-68
2021/04/17 12:01:12;;;;;;;9.35;7.18;;;16.40;37.30;;;;;;5132227;27;20019;-68
2021/04/17 12:03:38;;;;;;;10.32;7.88;;;16.50;37.40;;;;;;5131242;27;20118;-68
2021/04/17 12:06:06;;;;;;;14.38;7.43;;;16.50;36.80;;;;;;5121976;27;20024;-68
2021/04/17 12:08:32;;;;;;;11.65;8.05;;;16.60;36.80;;;;;;5129134;27;20026;-68
2021/04/17 12:10:58;;;;;;;10.95;7.95;;;16.70;36.30;;;;;;5132361;27;20084;-68
2021/04/17 12:13:25;;;;;;;9.63;7.65;;;16.70;35.90;;;;;;5131363;27;20472;-68
2021/04/17 12:15:51;;;;;;;9.48;7.35;;;16.80;35.90;;;;;;5114122;27;20049;-68
2021/04/17 12:18:17;;;;;;;10.10;7.45;;;16.80;36.10;;;;;;5112780;28;20019;-68
2021/04/17 12:20:45;;;;;;;11.55;7.35;;;16.90;35.40;;;;;;5126145;27;20442;-68
2021/04/17 12:23:13;;;;;;;8.90;6.93;;;16.90;35.30;;;;;;5130400;27;20064;-68
2021/04/17 12:25:40;;;;;;;10.20;7.05;;;17.00;35.80;;;;;;5142251;27;20177;-68
2021/04/17 12:28:06;;;;;;;9.70;6.53;;;17.20;35.20;;;;;;5134486;27;20376;-68
2021/04/17 12:30:33;;;;;;;8.68;6.72;;;17.40;35.50;;;;;;5130068;27;20086;-68
2021/04/17 12:32:59;;;;;;;8.43;6.90;;;17.60;35.10;;;;;;5132565;27;20030;-68
2021/04/17 12:35:25;;;;;;;7.55;6.63;;;17.80;34.80;;;;;;5132880;27;20019;-69
2021/04/17 12:37:51;;;;;;;10.80;6.18;;;17.90;34.00;;;;;;5133223;27;20022;-68
2021/04/17 12:40:17;;;;;;;10.13;7.05;;;18.00;33.60;;;;;;5133157;27;20384;-68
2021/04/17 12:42:44;;;;;;;8.48;6.30;;;18.10;33.30;;;;;;5127070;27;20026;-68
2021/04/17 12:45:11;;;;;;;7.80;6.13;;;18.10;33.30;;;;;;5123756;27;20132;-68
2021/04/17 12:47:40;;;;;;;9.48;7.32;;;18.20;33.00;;;;;;5131072;28;20023;-68
2021/04/17 12:50:09;;;;;;;7.45;6.03;;;18.30;31.90;;;;;;5131220;28;20055;-69